Chennai, India

12:27 AM IST on November 24, 2014 (GMT +0530)
Chennai International | Change Station
CLOSE
Current Station
Airport
Location: Chennai,
Elevation: 52 ft
Nearby Weather Stations

Elev 52 ft 12.99 °N, 80.18 °E | Updated 47 minutes ago

Scattered Clouds
Scattered Clouds
75 °F
Feels Like 75 °F
N
0
Wind Variable Wind from North

Today
High -- | Low -- °F
--% Chance of Precip.
Yesterday
High -- | Low -- °F
Precip. -- in
6:11 AM 5:39 PM
New Moon, 2% visible
Pressure 29.89 in
Visibility 2.2 miles
Clouds Scattered Clouds 2000 ft
Dew Point 73 °F
Humidity 94%
Rainfall 0.00 in
Snow Depth Not available.
UV 0 out of 12
Pollen Not available.
Air Quality Not available.
Flu Activity Not available.
METAR VOMM 231810Z 00000KT 3500 BR SCT020 24/23 Q1012 BECMG 3000 BR

More Conditions Fewer Conditions

Pressure 29.89 in
Visibility 2.2 miles
Clouds Scattered Clouds 2000 ft
Dew Point 73 °F
Humidity 94%
Rainfall 0.00 in
Snow Depth Not available.
UV 0 out of 12
Pollen Not available.
Air Quality Not available.
Flu Activity Not available.
METAR VOMM 231810Z 00000KT 3500 BR SCT020 24/23 Q1012 BECMG 3000 BR

More Conditions Fewer Conditions

10-Day Weather Forecast

Almanac

Astronomy

Nov. 24, 2014 Rise Set
Actual Time
Civil Twilight
Nautical Twilight
Astronomical Twilight
Moon
Length of Visible Light
Length of Day
Tomorrow will be .
, % of the Moon is Illuminated

Today's Extremes

Country Highs Country Lows

Community

WunderPhotos

Upload Photos

1,773,127 photos uploaded!

WunderBlogs® & News

Nearby

Air Quality

  Air Quality AQ Index Pollutant
Not available.

Snow Depth

Station Depth Elevation

Earthquake Activity

City Distance Mag. Time & Date
Minimum magnitude displayed is 2.5.

Coastal Water Temperatures

Place Temperature

Nearby Weather Stations